Terminal Aerodrome Forecast
Issued by NWS Portland, OR

Home | Current Version | Previous Version | Text Only | Print | Product List | Glossary On
Versions: 1 2 3 4 5 6 7 8 9 10 11 12 13 14 15 16 17 18 19 20 21 22 23 24 25 26 27 28
000
FTUS46 KPQR 181435 AAA
TAFSLE
TAF AMD
KSLE 181435Z 1815/1912 00000KT 1/4SM FG VV002
     FM181900 17005KT P6SM SCT250
     FM190900 VRB03KT 3SM BR SCT250=

USA.gov is the U.S. government's official web portal to all federal, state and local government web resources and services.